sensor_id;sensor_type;location;lat;lon;timestamp;P1;durP1;ratioP1;P2;durP2;ratioP2
66802;SDS011;53705;49.860;8.744;2023-03-16T00:01:28;4.18;;;2.28;;
66802;SDS011;53705;49.860;8.744;2023-03-16T00:04:13;5.65;;;1.77;;
66802;SDS011;53705;49.860;8.744;2023-03-16T00:07:00;4.32;;;2.40;;
66802;SDS011;53705;49.860;8.744;2023-03-16T00:09:45;5.13;;;2.60;;
66802;SDS011;53705;49.860;8.744;2023-03-16T00:12:30;5.57;;;1.88;;
66802;SDS011;53705;49.860;8.744;2023-03-16T00:15:17;3.67;;;2.42;;
66802;SDS011;53705;49.860;8.744;2023-03-16T00:18:02;5.28;;;2.35;;
66802;SDS011;53705;49.860;8.744;2023-03-16T00:20:50;5.85;;;1.33;;
66802;SDS011;53705;49.860;8.744;2023-03-16T00:23:38;7.10;;;2.50;;
66802;SDS011;53705;49.860;8.744;2023-03-16T00:26:23;9.40;;;3.58;;
66802;SDS011;53705;49.860;8.744;2023-03-16T00:29:09;14.35;;;4.40;;
66802;SDS011;53705;49.860;8.744;2023-03-16T00:31:55;5.60;;;2.97;;
66802;SDS011;53705;49.860;8.744;2023-03-16T00:34:41;4.35;;;2.58;;
66802;SDS011;53705;49.860;8.744;2023-03-16T00:37:27;6.25;;;2.83;;
66802;SDS011;53705;49.860;8.744;2023-03-16T00:40:16;5.70;;;2.85;;
66802;SDS011;53705;49.860;8.744;2023-03-16T00:43:02;8.65;;;3.80;;
66802;SDS011;53705;49.860;8.744;2023-03-16T00:48:35;5.25;;;3.38;;
66802;SDS011;53705;49.860;8.744;2023-03-16T00:51:21;4.10;;;1.90;;
66802;SDS011;53705;49.860;8.744;2023-03-16T00:54:08;7.93;;;1.75;;
66802;SDS011;53705;49.860;8.744;2023-03-16T00:56:55;5.57;;;2.88;;
66802;SDS011;53705;49.860;8.744;2023-03-16T00:59:40;10.00;;;2.78;;
66802;SDS011;53705;49.860;8.744;2023-03-16T01:02:25;6.50;;;3.05;;
66802;SDS011;53705;49.860;8.744;2023-03-16T01:05:11;8.50;;;1.98;;
66802;SDS011;53705;49.860;8.744;2023-03-16T01:07:57;9.65;;;5.75;;
66802;SDS011;53705;49.860;8.744;2023-03-16T01:10:42;12.38;;;5.88;;
66802;SDS011;53705;49.860;8.744;2023-03-16T01:13:30;11.65;;;5.72;;
66802;SDS011;53705;49.860;8.744;2023-03-16T01:16:16;13.07;;;6.70;;
66802;SDS011;53705;49.860;8.744;2023-03-16T01:19:02;9.68;;;6.05;;
66802;SDS011;53705;49.860;8.744;2023-03-16T01:21:47;11.57;;;6.18;;
66802;SDS011;53705;49.860;8.744;2023-03-16T01:24:32;16.77;;;6.95;;
66802;SDS011;53705;49.860;8.744;2023-03-16T01:27:18;9.80;;;5.78;;
66802;SDS011;53705;49.860;8.744;2023-03-16T01:30:05;13.23;;;5.55;;
66802;SDS011;53705;49.860;8.744;2023-03-16T01:32:51;10.75;;;5.05;;
66802;SDS011;53705;49.860;8.744;2023-03-16T01:35:37;8.88;;;5.07;;
66802;SDS011;53705;49.860;8.744;2023-03-16T01:38:23;8.05;;;4.13;;
66802;SDS011;53705;49.860;8.744;2023-03-16T01:41:09;11.63;;;5.93;;
66802;SDS011;53705;49.860;8.744;2023-03-16T01:43:55;9.65;;;5.35;;
66802;SDS011;53705;49.860;8.744;2023-03-16T01:46:43;14.02;;;5.88;;
66802;SDS011;53705;49.860;8.744;2023-03-16T01:49:29;15.07;;;6.13;;
66802;SDS011;53705;49.860;8.744;2023-03-16T01:52:17;9.52;;;5.35;;
66802;SDS011;53705;49.860;8.744;2023-03-16T01:55:03;12.30;;;6.50;;
66802;SDS011;53705;49.860;8.744;2023-03-16T01:57:50;8.45;;;3.50;;
66802;SDS011;53705;49.860;8.744;2023-03-16T02:00:37;8.63;;;4.68;;
66802;SDS011;53705;49.860;8.744;2023-03-16T02:03:36;8.98;;;5.40;;
66802;SDS011;53705;49.860;8.744;2023-03-16T02:06:32;8.02;;;4.22;;
66802;SDS011;53705;49.860;8.744;2023-03-16T02:09:18;6.75;;;4.15;;
66802;SDS011;53705;49.860;8.744;2023-03-16T02:12:05;8.27;;;4.00;;
66802;SDS011;53705;49.860;8.744;2023-03-16T02:14:56;7.78;;;3.85;;
66802;SDS011;53705;49.860;8.744;2023-03-16T02:17:42;8.25;;;4.25;;
66802;SDS011;53705;49.860;8.744;2023-03-16T02:20:34;8.15;;;3.47;;
66802;SDS011;53705;49.860;8.744;2023-03-16T02:23:22;9.65;;;3.60;;
66802;SDS011;53705;49.860;8.744;2023-03-16T02:26:09;10.57;;;5.93;;
66802;SDS011;53705;49.860;8.744;2023-03-16T02:29:03;13.15;;;4.68;;
66802;SDS011;53705;49.860;8.744;2023-03-16T02:31:50;7.95;;;4.38;;
66802;SDS011;53705;49.860;8.744;2023-03-16T02:34:36;7.80;;;3.70;;
66802;SDS011;53705;49.860;8.744;2023-03-16T02:37:22;11.93;;;4.57;;
66802;SDS011;53705;49.860;8.744;2023-03-16T02:40:18;9.10;;;4.70;;
66802;SDS011;53705;49.860;8.744;2023-03-16T02:43:06;9.77;;;4.13;;
66802;SDS011;53705;49.860;8.744;2023-03-16T02:45:57;10.43;;;4.88;;
66802;SDS011;53705;49.860;8.744;2023-03-16T02:48:48;11.70;;;7.63;;
66802;SDS011;53705;49.860;8.744;2023-03-16T02:51:36;10.90;;;4.72;;
66802;SDS011;53705;49.860;8.744;2023-03-16T02:54:21;7.85;;;4.18;;
66802;SDS011;53705;49.860;8.744;2023-03-16T02:57:06;10.30;;;3.92;;
66802;SDS011;53705;49.860;8.744;2023-03-16T02:59:52;11.23;;;5.28;;
66802;SDS011;53705;49.860;8.744;2023-03-16T03:02:38;11.50;;;4.68;;
66802;SDS011;53705;49.860;8.744;2023-03-16T03:05:25;13.60;;;5.03;;
66802;SDS011;53705;49.860;8.744;2023-03-16T03:08:10;14.73;;;7.05;;
66802;SDS011;53705;49.860;8.744;2023-03-16T03:10:56;13.05;;;5.93;;
66802;SDS011;53705;49.860;8.744;2023-03-16T03:13:40;12.85;;;7.30;;
66802;SDS011;53705;49.860;8.744;2023-03-16T03:16:30;13.48;;;6.38;;
66802;SDS011;53705;49.860;8.744;2023-03-16T03:19:16;10.98;;;6.13;;
66802;SDS011;53705;49.860;8.744;2023-03-16T03:22:03;14.38;;;6.38;;
66802;SDS011;53705;49.860;8.744;2023-03-16T03:24:50;13.20;;;6.40;;
66802;SDS011;53705;49.860;8.744;2023-03-16T03:27:36;12.95;;;6.53;;
66802;SDS011;53705;49.860;8.744;2023-03-16T03:30:24;14.65;;;6.82;;
66802;SDS011;53705;49.860;8.744;2023-03-16T03:33:10;13.55;;;6.43;;
66802;SDS011;53705;49.860;8.744;2023-03-16T03:35:56;12.80;;;6.43;;
66802;SDS011;53705;49.860;8.744;2023-03-16T03:38:44;13.38;;;6.28;;
66802;SDS011;53705;49.860;8.744;2023-03-16T03:41:30;12.35;;;6.68;;
66802;SDS011;53705;49.860;8.744;2023-03-16T03:44:18;13.10;;;5.90;;
66802;SDS011;53705;49.860;8.744;2023-03-16T03:47:03;12.55;;;6.88;;
66802;SDS011;53705;49.860;8.744;2023-03-16T03:49:48;10.95;;;5.78;;
66802;SDS011;53705;49.860;8.744;2023-03-16T03:52:34;9.27;;;3.78;;
66802;SDS011;53705;49.860;8.744;2023-03-16T03:55:20;10.98;;;6.25;;
66802;SDS011;53705;49.860;8.744;2023-03-16T04:00:50;15.10;;;6.97;;
66802;SDS011;53705;49.860;8.744;2023-03-16T04:03:36;15.73;;;6.70;;
66802;SDS011;53705;49.860;8.744;2023-03-16T04:06:23;14.45;;;7.78;;
66802;SDS011;53705;49.860;8.744;2023-03-16T04:09:08;17.98;;;8.50;;
66802;SDS011;53705;49.860;8.744;2023-03-16T04:11:55;16.38;;;7.63;;
66802;SDS011;53705;49.860;8.744;2023-03-16T04:14:42;17.25;;;8.43;;
66802;SDS011;53705;49.860;8.744;2023-03-16T04:17:27;20.42;;;11.18;;
66802;SDS011;53705;49.860;8.744;2023-03-16T04:20:15;17.63;;;8.75;;
66802;SDS011;53705;49.860;8.744;2023-03-16T04:23:03;13.52;;;7.78;;
66802;SDS011;53705;49.860;8.744;2023-03-16T04:25:49;20.40;;;10.32;;
66802;SDS011;53705;49.860;8.744;2023-03-16T04:28:38;26.52;;;11.02;;
66802;SDS011;53705;49.860;8.744;2023-03-16T04:31:25;16.98;;;8.48;;
66802;SDS011;53705;49.860;8.744;2023-03-16T04:34:11;16.67;;;7.75;;
66802;SDS011;53705;49.860;8.744;2023-03-16T04:36:56;16.52;;;8.57;;
66802;SDS011;53705;49.860;8.744;2023-03-16T04:39:41;17.52;;;7.95;;
66802;SDS011;53705;49.860;8.744;2023-03-16T04:42:27;14.68;;;9.23;;
66802;SDS011;53705;49.860;8.744;2023-03-16T04:45:14;16.30;;;7.85;;
66802;SDS011;53705;49.860;8.744;2023-03-16T04:48:01;15.82;;;7.45;;
66802;SDS011;53705;49.860;8.744;2023-03-16T04:50:46;18.00;;;7.22;;
66802;SDS011;53705;49.860;8.744;2023-03-16T04:53:33;11.88;;;6.18;;
66802;SDS011;53705;49.860;8.744;2023-03-16T04:56:26;16.05;;;6.43;;
66802;SDS011;53705;49.860;8.744;2023-03-16T04:59:17;12.15;;;5.97;;
66802;SDS011;53705;49.860;8.744;2023-03-16T05:02:16;15.07;;;6.35;;
66802;SDS011;53705;49.860;8.744;2023-03-16T05:05:03;17.02;;;7.30;;
66802;SDS011;53705;49.860;8.744;2023-03-16T05:07:48;13.55;;;6.38;;
66802;SDS011;53705;49.860;8.744;2023-03-16T05:10:35;16.00;;;8.65;;
66802;SDS011;53705;49.860;8.744;2023-03-16T05:13:20;13.18;;;5.18;;
66802;SDS011;53705;49.860;8.744;2023-03-16T05:16:07;16.50;;;6.15;;
66802;SDS011;53705;49.860;8.744;2023-03-16T05:18:58;14.90;;;8.32;;
66802;SDS011;53705;49.860;8.744;2023-03-16T05:21:45;13.38;;;5.68;;
66802;SDS011;53705;49.860;8.744;2023-03-16T05:24:31;13.52;;;6.97;;
66802;SDS011;53705;49.860;8.744;2023-03-16T05:27:16;13.90;;;6.55;;
66802;SDS011;53705;49.860;8.744;2023-03-16T05:30:01;13.93;;;6.15;;
66802;SDS011;53705;49.860;8.744;2023-03-16T05:32:49;13.63;;;6.05;;
66802;SDS011;53705;49.860;8.744;2023-03-16T05:35:37;11.73;;;5.40;;
66802;SDS011;53705;49.860;8.744;2023-03-16T05:38:27;14.38;;;5.72;;
66802;SDS011;53705;49.860;8.744;2023-03-16T05:41:12;10.88;;;5.63;;
66802;SDS011;53705;49.860;8.744;2023-03-16T05:44:18;10.20;;;5.07;;
66802;SDS011;53705;49.860;8.744;2023-03-16T05:47:36;11.88;;;6.43;;
66802;SDS011;53705;49.860;8.744;2023-03-16T05:50:24;11.93;;;6.97;;
66802;SDS011;53705;49.860;8.744;2023-03-16T05:53:11;22.20;;;10.10;;
66802;SDS011;53705;49.860;8.744;2023-03-16T05:55:57;22.67;;;12.60;;
66802;SDS011;53705;49.860;8.744;2023-03-16T05:58:44;19.45;;;11.50;;
66802;SDS011;53705;49.860;8.744;2023-03-16T06:01:29;24.42;;;11.88;;
66802;SDS011;53705;49.860;8.744;2023-03-16T06:04:16;15.93;;;9.23;;
66802;SDS011;53705;49.860;8.744;2023-03-16T06:07:02;15.63;;;8.32;;
66802;SDS011;53705;49.860;8.744;2023-03-16T06:09:50;14.65;;;8.50;;
66802;SDS011;53705;49.860;8.744;2023-03-16T06:12:36;18.23;;;7.50;;
66802;SDS011;53705;49.860;8.744;2023-03-16T06:15:22;20.58;;;9.50;;
66802;SDS011;53705;49.860;8.744;2023-03-16T06:18:10;13.57;;;8.20;;
66802;SDS011;53705;49.860;8.744;2023-03-16T06:20:55;13.50;;;7.55;;
66802;SDS011;53705;49.860;8.744;2023-03-16T06:23:41;13.73;;;7.63;;
66802;SDS011;53705;49.860;8.744;2023-03-16T06:26:28;15.48;;;8.88;;
66802;SDS011;53705;49.860;8.744;2023-03-16T06:29:14;16.55;;;8.02;;
66802;SDS011;53705;49.860;8.744;2023-03-16T06:31:59;14.48;;;7.82;;
66802;SDS011;53705;49.860;8.744;2023-03-16T06:34:46;19.88;;;9.20;;
66802;SDS011;53705;49.860;8.744;2023-03-16T06:37:32;15.95;;;8.25;;
66802;SDS011;53705;49.860;8.744;2023-03-16T06:40:21;14.02;;;7.05;;
66802;SDS011;53705;49.860;8.744;2023-03-16T06:43:08;12.68;;;7.50;;
66802;SDS011;53705;49.860;8.744;2023-03-16T06:45:53;15.10;;;8.50;;
66802;SDS011;53705;49.860;8.744;2023-03-16T06:48:40;15.68;;;8.93;;
66802;SDS011;53705;49.860;8.744;2023-03-16T06:51:26;15.45;;;8.23;;
66802;SDS011;53705;49.860;8.744;2023-03-16T06:54:11;18.45;;;8.85;;
66802;SDS011;53705;49.860;8.744;2023-03-16T06:56:57;18.52;;;9.02;;
66802;SDS011;53705;49.860;8.744;2023-03-16T06:59:44;16.98;;;9.57;;
66802;SDS011;53705;49.860;8.744;2023-03-16T07:02:29;18.40;;;9.30;;
66802;SDS011;53705;49.860;8.744;2023-03-16T07:05:15;14.85;;;7.25;;
66802;SDS011;53705;49.860;8.744;2023-03-16T07:08:01;16.13;;;8.15;;
66802;SDS011;53705;49.860;8.744;2023-03-16T07:10:48;14.20;;;7.70;;
66802;SDS011;53705;49.860;8.744;2023-03-16T07:16:20;14.63;;;8.30;;
66802;SDS011;53705;49.860;8.744;2023-03-16T07:19:05;15.50;;;7.97;;
66802;SDS011;53705;49.860;8.744;2023-03-16T07:21:50;13.27;;;8.80;;
66802;SDS011;53705;49.860;8.744;2023-03-16T07:24:38;15.63;;;8.88;;
66802;SDS011;53705;49.860;8.744;2023-03-16T07:27:24;16.27;;;7.10;;
66802;SDS011;53705;49.860;8.744;2023-03-16T07:30:10;17.55;;;8.38;;
66802;SDS011;53705;49.860;8.744;2023-03-16T07:32:58;14.13;;;8.25;;
66802;SDS011;53705;49.860;8.744;2023-03-16T07:35:44;16.30;;;8.20;;
66802;SDS011;53705;49.860;8.744;2023-03-16T07:38:30;15.93;;;8.38;;
66802;SDS011;53705;49.860;8.744;2023-03-16T07:41:15;16.92;;;9.50;;
66802;SDS011;53705;49.860;8.744;2023-03-16T07:44:00;17.35;;;6.72;;
66802;SDS011;53705;49.860;8.744;2023-03-16T07:46:45;15.18;;;9.38;;
66802;SDS011;53705;49.860;8.744;2023-03-16T07:49:32;15.57;;;8.00;;
66802;SDS011;53705;49.860;8.744;2023-03-16T07:52:18;15.80;;;8.63;;
66802;SDS011;53705;49.860;8.744;2023-03-16T07:55:05;15.05;;;8.00;;
66802;SDS011;53705;49.860;8.744;2023-03-16T07:57:50;15.52;;;8.40;;
66802;SDS011;53705;49.860;8.744;2023-03-16T08:03:27;15.07;;;8.38;;
66802;SDS011;53705;49.860;8.744;2023-03-16T08:06:15;16.63;;;8.98;;
66802;SDS011;53705;49.860;8.744;2023-03-16T08:09:00;13.80;;;9.82;;
66802;SDS011;53705;49.860;8.744;2023-03-16T08:11:50;16.27;;;9.15;;
66802;SDS011;53705;49.860;8.744;2023-03-16T08:14:36;14.82;;;7.82;;
66802;SDS011;53705;49.860;8.744;2023-03-16T08:17:30;12.25;;;6.32;;
66802;SDS011;53705;49.860;8.744;2023-03-16T08:20:18;12.50;;;6.78;;
66802;SDS011;53705;49.860;8.744;2023-03-16T08:23:05;10.00;;;5.28;;
66802;SDS011;53705;49.860;8.744;2023-03-16T08:25:57;11.70;;;6.05;;
66802;SDS011;53705;49.860;8.744;2023-03-16T08:28:45;10.45;;;6.45;;
66802;SDS011;53705;49.860;8.744;2023-03-16T08:34:26;10.05;;;4.82;;
66802;SDS011;53705;49.860;8.744;2023-03-16T08:37:12;10.95;;;5.03;;
66802;SDS011;53705;49.860;8.744;2023-03-16T08:40:01;10.80;;;5.82;;
66802;SDS011;53705;49.860;8.744;2023-03-16T08:42:49;8.90;;;5.60;;
66802;SDS011;53705;49.860;8.744;2023-03-16T08:45:37;9.88;;;6.60;;
66802;SDS011;53705;49.860;8.744;2023-03-16T08:48:22;10.07;;;4.82;;
66802;SDS011;53705;49.860;8.744;2023-03-16T08:51:09;10.45;;;6.90;;
66802;SDS011;53705;49.860;8.744;2023-03-16T08:53:55;7.75;;;5.15;;
66802;SDS011;53705;49.860;8.744;2023-03-16T08:56:43;7.78;;;5.50;;
66802;SDS011;53705;49.860;8.744;2023-03-16T08:59:28;9.20;;;4.80;;
66802;SDS011;53705;49.860;8.744;2023-03-16T09:02:13;8.15;;;5.35;;
66802;SDS011;53705;49.860;8.744;2023-03-16T09:04:58;9.75;;;5.13;;
66802;SDS011;53705;49.860;8.744;2023-03-16T09:07:43;8.95;;;5.43;;
66802;SDS011;53705;49.860;8.744;2023-03-16T09:10:29;11.45;;;5.40;;
66802;SDS011;53705;49.860;8.744;2023-03-16T09:16:03;7.57;;;3.97;;
66802;SDS011;53705;49.860;8.744;2023-03-16T09:18:49;6.32;;;4.03;;
66802;SDS011;53705;49.860;8.744;2023-03-16T09:21:34;7.43;;;4.32;;
66802;SDS011;53705;49.860;8.744;2023-03-16T09:24:20;7.72;;;3.72;;
66802;SDS011;53705;49.860;8.744;2023-03-16T09:27:05;7.05;;;4.32;;
66802;SDS011;53705;49.860;8.744;2023-03-16T09:29:50;7.03;;;4.28;;
66802;SDS011;53705;49.860;8.744;2023-03-16T09:32:40;8.25;;;4.32;;
66802;SDS011;53705;49.860;8.744;2023-03-16T09:35:25;6.50;;;4.70;;
66802;SDS011;53705;49.860;8.744;2023-03-16T09:38:11;6.22;;;3.95;;
66802;SDS011;53705;49.860;8.744;2023-03-16T09:40:57;6.53;;;3.47;;
66802;SDS011;53705;49.860;8.744;2023-03-16T09:43:47;7.60;;;4.45;;
66802;SDS011;53705;49.860;8.744;2023-03-16T09:46:35;6.03;;;2.97;;
66802;SDS011;53705;49.860;8.744;2023-03-16T09:49:23;7.43;;;3.75;;
66802;SDS011;53705;49.860;8.744;2023-03-16T09:52:14;6.93;;;4.00;;
66802;SDS011;53705;49.860;8.744;2023-03-16T09:55:03;5.57;;;2.80;;
66802;SDS011;53705;49.860;8.744;2023-03-16T09:57:50;5.55;;;3.33;;
66802;SDS011;53705;49.860;8.744;2023-03-16T10:00:37;6.18;;;3.75;;
66802;SDS011;53705;49.860;8.744;2023-03-16T10:03:27;7.43;;;4.15;;
66802;SDS011;53705;49.860;8.744;2023-03-16T10:06:16;7.05;;;3.45;;
66802;SDS011;53705;49.860;8.744;2023-03-16T10:09:04;5.13;;;3.08;;
66802;SDS011;53705;49.860;8.744;2023-03-16T10:11:51;6.05;;;3.50;;
66802;SDS011;53705;49.860;8.744;2023-03-16T10:14:38;4.97;;;3.05;;
66802;SDS011;53705;49.860;8.744;2023-03-16T10:17:25;8.18;;;4.03;;
66802;SDS011;53705;49.860;8.744;2023-03-16T10:20:15;5.05;;;3.38;;
66802;SDS011;53705;49.860;8.744;2023-03-16T10:23:07;5.22;;;2.63;;
66802;SDS011;53705;49.860;8.744;2023-03-16T10:25:56;6.78;;;4.15;;
66802;SDS011;53705;49.860;8.744;2023-03-16T10:28:41;5.88;;;2.90;;
66802;SDS011;53705;49.860;8.744;2023-03-16T10:31:28;6.25;;;2.85;;
66802;SDS011;53705;49.860;8.744;2023-03-16T10:34:13;8.00;;;2.75;;
66802;SDS011;53705;49.860;8.744;2023-03-16T10:36:58;5.22;;;4.15;;
66802;SDS011;53705;49.860;8.744;2023-03-16T10:39:47;7.30;;;2.75;;
66802;SDS011;53705;49.860;8.744;2023-03-16T10:42:34;4.57;;;3.08;;
66802;SDS011;53705;49.860;8.744;2023-03-16T10:45:22;4.18;;;2.30;;
66802;SDS011;53705;49.860;8.744;2023-03-16T10:48:11;8.40;;;3.08;;
66802;SDS011;53705;49.860;8.744;2023-03-16T10:50:57;4.68;;;1.85;;
66802;SDS011;53705;49.860;8.744;2023-03-16T10:53:44;6.05;;;2.95;;
66802;SDS011;53705;49.860;8.744;2023-03-16T10:56:33;6.05;;;2.47;;
66802;SDS011;53705;49.860;8.744;2023-03-16T10:59:25;6.05;;;2.50;;
66802;SDS011;53705;49.860;8.744;2023-03-16T11:02:13;5.95;;;2.85;;
66802;SDS011;53705;49.860;8.744;2023-03-16T11:05:09;5.57;;;3.05;;
66802;SDS011;53705;49.860;8.744;2023-03-16T11:07:58;4.70;;;3.42;;
66802;SDS011;53705;49.860;8.744;2023-03-16T11:10:44;4.25;;;3.17;;
66802;SDS011;53705;49.860;8.744;2023-03-16T11:13:32;4.05;;;2.42;;
66802;SDS011;53705;49.860;8.744;2023-03-16T11:16:20;4.28;;;2.70;;
66802;SDS011;53705;49.860;8.744;2023-03-16T11:19:10;4.20;;;2.35;;
66802;SDS011;53705;49.860;8.744;2023-03-16T11:21:59;3.03;;;1.50;;
66802;SDS011;53705;49.860;8.744;2023-03-16T11:24:47;5.57;;;2.38;;
66802;SDS011;53705;49.860;8.744;2023-03-16T11:27:34;6.15;;;2.78;;
66802;SDS011;53705;49.860;8.744;2023-03-16T11:30:22;6.90;;;3.38;;
66802;SDS011;53705;49.860;8.744;2023-03-16T11:33:10;5.07;;;2.95;;
66802;SDS011;53705;49.860;8.744;2023-03-16T11:35:59;4.53;;;2.85;;
66802;SDS011;53705;49.860;8.744;2023-03-16T11:38:47;4.03;;;3.28;;
66802;SDS011;53705;49.860;8.744;2023-03-16T11:41:40;4.75;;;2.65;;
66802;SDS011;53705;49.860;8.744;2023-03-16T11:44:31;5.43;;;3.10;;
66802;SDS011;53705;49.860;8.744;2023-03-16T11:47:31;5.20;;;2.15;;
66802;SDS011;53705;49.860;8.744;2023-03-16T11:50:18;4.45;;;3.05;;
66802;SDS011;53705;49.860;8.744;2023-03-16T11:53:08;3.92;;;1.75;;
66802;SDS011;53705;49.860;8.744;2023-03-16T11:56:00;3.50;;;2.15;;
66802;SDS011;53705;49.860;8.744;2023-03-16T11:58:51;2.95;;;0.57;;
66802;SDS011;53705;49.860;8.744;2023-03-16T12:01:40;3.55;;;1.88;;
66802;SDS011;53705;49.860;8.744;2023-03-16T12:04:40;8.68;;;3.05;;
66802;SDS011;53705;49.860;8.744;2023-03-16T12:07:33;4.25;;;1.98;;
66802;SDS011;53705;49.860;8.744;2023-03-16T12:10:21;3.90;;;1.90;;
66802;SDS011;53705;49.860;8.744;2023-03-16T12:13:13;2.95;;;2.63;;
66802;SDS011;53705;49.860;8.744;2023-03-16T12:16:03;3.35;;;2.20;;
66802;SDS011;53705;49.860;8.744;2023-03-16T12:18:49;3.13;;;2.10;;
66802;SDS011;53705;49.860;8.744;2023-03-16T12:21:38;3.30;;;2.38;;
66802;SDS011;53705;49.860;8.744;2023-03-16T12:24:25;4.03;;;1.83;;
66802;SDS011;53705;49.860;8.744;2023-03-16T12:27:13;3.78;;;2.72;;
66802;SDS011;53705;49.860;8.744;2023-03-16T12:30:02;3.97;;;1.73;;
66802;SDS011;53705;49.860;8.744;2023-03-16T12:32:54;2.53;;;1.63;;
66802;SDS011;53705;49.860;8.744;2023-03-16T12:35:43;2.47;;;1.50;;
66802;SDS011;53705;49.860;8.744;2023-03-16T12:38:34;3.15;;;1.95;;
66802;SDS011;53705;49.860;8.744;2023-03-16T12:41:23;4.32;;;1.75;;
66802;SDS011;53705;49.860;8.744;2023-03-16T12:44:12;3.05;;;1.33;;
66802;SDS011;53705;49.860;8.744;2023-03-16T12:46:59;3.03;;;1.80;;
66802;SDS011;53705;49.860;8.744;2023-03-16T12:49:46;2.63;;;1.65;;
66802;SDS011;53705;49.860;8.744;2023-03-16T12:52:38;4.10;;;3.15;;
66802;SDS011;53705;49.860;8.744;2023-03-16T12:55:25;2.58;;;1.77;;
66802;SDS011;53705;49.860;8.744;2023-03-16T12:58:11;5.55;;;2.20;;
66802;SDS011;53705;49.860;8.744;2023-03-16T13:00:57;3.67;;;1.55;;
66802;SDS011;53705;49.860;8.744;2023-03-16T13:03:43;2.92;;;2.63;;
66802;SDS011;53705;49.860;8.744;2023-03-16T13:06:31;2.25;;;1.67;;
66802;SDS011;53705;49.860;8.744;2023-03-16T13:09:17;2.03;;;1.65;;
66802;SDS011;53705;49.860;8.744;2023-03-16T13:12:06;2.22;;;1.35;;
66802;SDS011;53705;49.860;8.744;2023-03-16T13:14:53;4.22;;;2.30;;
66802;SDS011;53705;49.860;8.744;2023-03-16T13:17:39;2.15;;;1.73;;
66802;SDS011;53705;49.860;8.744;2023-03-16T13:20:25;3.30;;;0.98;;
66802;SDS011;53705;49.860;8.744;2023-03-16T13:23:19;3.50;;;1.55;;
66802;SDS011;53705;49.860;8.744;2023-03-16T13:26:11;3.35;;;1.25;;
66802;SDS011;53705;49.860;8.744;2023-03-16T13:28:59;4.03;;;1.45;;
66802;SDS011;53705;49.860;8.744;2023-03-16T13:31:44;5.75;;;1.33;;
66802;SDS011;53705;49.860;8.744;2023-03-16T13:34:30;2.25;;;0.38;;
66802;SDS011;53705;49.860;8.744;2023-03-16T13:37:16;2.58;;;1.38;;
66802;SDS011;53705;49.860;8.744;2023-03-16T13:40:03;3.85;;;1.60;;
66802;SDS011;53705;49.860;8.744;2023-03-16T13:42:48;3.20;;;1.30;;
66802;SDS011;53705;49.860;8.744;2023-03-16T13:45:37;3.25;;;1.33;;
66802;SDS011;53705;49.860;8.744;2023-03-16T13:48:22;2.95;;;1.33;;
66802;SDS011;53705;49.860;8.744;2023-03-16T13:53:52;4.15;;;1.52;;
66802;SDS011;53705;49.860;8.744;2023-03-16T13:56:37;2.05;;;1.27;;
66802;SDS011;53705;49.860;8.744;2023-03-16T13:59:22;3.00;;;1.42;;
66802;SDS011;53705;49.860;8.744;2023-03-16T14:02:14;2.22;;;1.55;;
66802;SDS011;53705;49.860;8.744;2023-03-16T14:05:08;2.30;;;1.55;;
66802;SDS011;53705;49.860;8.744;2023-03-16T14:07:55;2.85;;;1.40;;
66802;SDS011;53705;49.860;8.744;2023-03-16T14:10:43;3.95;;;1.88;;
66802;SDS011;53705;49.860;8.744;2023-03-16T14:13:32;2.63;;;1.52;;
66802;SDS011;53705;49.860;8.744;2023-03-16T14:16:21;2.78;;;1.30;;
66802;SDS011;53705;49.860;8.744;2023-03-16T14:19:11;2.75;;;1.85;;
66802;SDS011;53705;49.860;8.744;2023-03-16T14:22:00;4.10;;;1.77;;
66802;SDS011;53705;49.860;8.744;2023-03-16T14:24:50;2.05;;;1.23;;
66802;SDS011;53705;49.860;8.744;2023-03-16T14:27:41;2.47;;;1.63;;
66802;SDS011;53705;49.860;8.744;2023-03-16T14:30:27;3.25;;;1.67;;
66802;SDS011;53705;49.860;8.744;2023-03-16T14:33:21;2.28;;;1.77;;
66802;SDS011;53705;49.860;8.744;2023-03-16T14:36:13;3.35;;;1.85;;
66802;SDS011;53705;49.860;8.744;2023-03-16T14:39:08;2.92;;;1.88;;
66802;SDS011;53705;49.860;8.744;2023-03-16T14:41:53;2.63;;;1.33;;
66802;SDS011;53705;49.860;8.744;2023-03-16T14:44:38;3.22;;;1.67;;
66802;SDS011;53705;49.860;8.744;2023-03-16T14:47:23;2.35;;;1.40;;
66802;SDS011;53705;49.860;8.744;2023-03-16T14:50:12;2.78;;;1.35;;
66802;SDS011;53705;49.860;8.744;2023-03-16T14:53:00;2.47;;;1.48;;
66802;SDS011;53705;49.860;8.744;2023-03-16T14:55:46;2.97;;;2.08;;
66802;SDS011;53705;49.860;8.744;2023-03-16T14:58:32;3.13;;;0.73;;
66802;SDS011;53705;49.860;8.744;2023-03-16T15:01:19;2.97;;;2.17;;
66802;SDS011;53705;49.860;8.744;2023-03-16T15:04:04;2.15;;;1.73;;
66802;SDS011;53705;49.860;8.744;2023-03-16T15:06:50;4.00;;;1.17;;
66802;SDS011;53705;49.860;8.744;2023-03-16T15:09:37;3.33;;;1.13;;
66802;SDS011;53705;49.860;8.744;2023-03-16T15:12:22;2.58;;;2.08;;
66802;SDS011;53705;49.860;8.744;2023-03-16T15:15:10;4.20;;;2.28;;
66802;SDS011;53705;49.860;8.744;2023-03-16T15:18:01;2.70;;;1.83;;
66802;SDS011;53705;49.860;8.744;2023-03-16T15:20:46;3.55;;;1.77;;
66802;SDS011;53705;49.860;8.744;2023-03-16T15:23:33;2.88;;;1.77;;
66802;SDS011;53705;49.860;8.744;2023-03-16T15:26:20;4.53;;;2.65;;
66802;SDS011;53705;49.860;8.744;2023-03-16T15:29:08;3.63;;;2.53;;
66802;SDS011;53705;49.860;8.744;2023-03-16T15:31:54;3.13;;;0.82;;
66802;SDS011;53705;49.860;8.744;2023-03-16T15:34:39;5.65;;;2.55;;
66802;SDS011;53705;49.860;8.744;2023-03-16T15:37:25;11.82;;;2.35;;
66802;SDS011;53705;49.860;8.744;2023-03-16T15:42:57;7.13;;;2.67;;
66802;SDS011;53705;49.860;8.744;2023-03-16T15:45:42;4.75;;;1.35;;
66802;SDS011;53705;49.860;8.744;2023-03-16T15:48:27;3.70;;;1.02;;
66802;SDS011;53705;49.860;8.744;2023-03-16T15:51:15;6.10;;;1.73;;
66802;SDS011;53705;49.860;8.744;2023-03-16T15:54:01;3.67;;;1.52;;
66802;SDS011;53705;49.860;8.744;2023-03-16T15:56:47;5.47;;;2.42;;
66802;SDS011;53705;49.860;8.744;2023-03-16T15:59:34;4.72;;;2.53;;
66802;SDS011;53705;49.860;8.744;2023-03-16T16:02:23;5.50;;;2.92;;
66802;SDS011;53705;49.860;8.744;2023-03-16T16:05:10;4.53;;;3.10;;
66802;SDS011;53705;49.860;8.744;2023-03-16T16:07:55;6.60;;;3.45;;
66802;SDS011;53705;49.860;8.744;2023-03-16T16:10:41;5.00;;;2.97;;
66802;SDS011;53705;49.860;8.744;2023-03-16T16:13:26;5.90;;;3.45;;
66802;SDS011;53705;49.860;8.744;2023-03-16T16:16:14;4.82;;;3.60;;
66802;SDS011;53705;49.860;8.744;2023-03-16T16:19:00;5.80;;;3.25;;
66802;SDS011;53705;49.860;8.744;2023-03-16T16:21:45;9.35;;;2.20;;
66802;SDS011;53705;49.860;8.744;2023-03-16T16:24:30;6.07;;;3.50;;
66802;SDS011;53705;49.860;8.744;2023-03-16T16:27:16;5.30;;;3.13;;
66802;SDS011;53705;49.860;8.744;2023-03-16T16:30:04;6.47;;;3.03;;
66802;SDS011;53705;49.860;8.744;2023-03-16T16:32:56;5.38;;;3.30;;
66802;SDS011;53705;49.860;8.744;2023-03-16T16:35:41;5.13;;;2.92;;
66802;SDS011;53705;49.860;8.744;2023-03-16T16:38:28;5.05;;;3.25;;
66802;SDS011;53705;49.860;8.744;2023-03-16T16:41:20;7.93;;;4.60;;
66802;SDS011;53705;49.860;8.744;2023-03-16T16:44:09;5.75;;;3.50;;
66802;SDS011;53705;49.860;8.744;2023-03-16T16:46:58;5.70;;;3.92;;
66802;SDS011;53705;49.860;8.744;2023-03-16T16:49:45;5.63;;;4.03;;
66802;SDS011;53705;49.860;8.744;2023-03-16T16:52:30;6.00;;;3.75;;
66802;SDS011;53705;49.860;8.744;2023-03-16T16:55:15;5.68;;;3.65;;
66802;SDS011;53705;49.860;8.744;2023-03-16T16:58:01;8.63;;;4.10;;
66802;SDS011;53705;49.860;8.744;2023-03-16T17:00:46;6.68;;;5.45;;
66802;SDS011;53705;49.860;8.744;2023-03-16T17:03:34;8.13;;;4.32;;
66802;SDS011;53705;49.860;8.744;2023-03-16T17:06:20;5.93;;;3.55;;